Time;durP1;ratioP1;P1;durP2;ratioP2;P2;SDS_P1;SDS_P2;PMS_P1;PMS_P2;Temp;Humidity;BMP_temperature;BMP_pressure;BME280_temperature;BME280_humidity;BME280_pressure;Samples;Min_cycle;Max_cycle;Signal;HPM_P1;HPM_P2
2021/12/06 00:02:02;;;;;;;21.55;13.15;;;2.60;99.90;;;;;;5035464;28;20041;-59
2021/12/06 00:04:32;;;;;;;22.25;13.90;;;2.70;99.90;;;;;;5034214;28;20056;-59
2021/12/06 00:07:02;;;;;;;23.48;14.77;;;2.70;99.90;;;;;;5034217;28;20041;-59
2021/12/06 00:09:29;;;;;;;24.33;14.63;;;;;;;;;;5033889;28;20377;-59
2021/12/06 00:11:58;;;;;;;23.45;15.27;;;2.90;99.90;;;;;;5035424;28;20045;-60
2021/12/06 00:14:28;;;;;;;24.75;14.85;;;2.80;99.90;;;;;;5035082;28;20052;-59
2021/12/06 00:16:54;;;;;;;25.88;14.50;;;2.60;99.90;;;;;;5035156;28;20048;-59
2021/12/06 00:19:20;;;;;;;24.23;14.00;;;2.80;99.90;;;;;;5033762;28;20041;-59
2021/12/06 00:21:46;;;;;;;25.08;14.27;;;3.00;99.90;;;;;;5035077;28;20396;-59
2021/12/06 00:24:12;;;;;;;23.40;14.40;;;;;;;;;;5034826;28;20041;-59
2021/12/06 00:26:37;;;;;;;25.48;14.95;;;2.80;99.90;;;;;;5035164;28;20034;-59
2021/12/06 00:29:03;;;;;;;25.70;16.65;;;2.70;99.90;;;;;;5033836;28;20084;-59
2021/12/06 00:31:33;;;;;;;25.58;15.13;;;2.80;99.90;;;;;;5034553;28;20132;-59
2021/12/06 00:34:03;;;;;;;27.17;16.45;;;2.80;99.90;;;;;;5034645;28;20534;-59
2021/12/06 00:36:31;;;;;;;29.85;16.38;;;2.60;99.90;;;;;;5033453;28;20120;-59
2021/12/06 00:38:58;;;;;;;28.45;15.73;;;2.80;99.90;;;;;;5033509;28;20442;-59
2021/12/06 00:41:24;;;;;;;29.02;16.40;;;;;;;;;;5033795;28;20089;-59
2021/12/06 00:43:50;;;;;;;26.35;16.10;;;2.60;99.90;;;;;;5033596;28;20121;-59
2021/12/06 00:46:15;;;;;;;26.05;16.38;;;2.60;99.90;;;;;;5033229;28;20072;-59
2021/12/06 00:48:41;;;;;;;29.80;16.77;;;2.70;99.90;;;;;;5034526;28;20049;-59
2021/12/06 00:51:07;;;;;;;32.38;17.38;;;2.60;99.90;;;;;;5034303;28;20054;-59
2021/12/06 00:53:32;;;;;;;28.33;16.40;;;2.60;99.90;;;;;;5034261;28;20373;-59
2021/12/06 00:55:58;;;;;;;29.05;16.52;;;2.60;99.90;;;;;;5034668;28;20034;-59
2021/12/06 00:58:24;;;;;;;31.25;16.73;;;2.70;99.90;;;;;;5034514;28;20065;-59
2021/12/06 01:00:52;;;;;;;30.10;16.73;;;2.90;99.90;;;;;;5034353;28;20069;-59
2021/12/06 01:03:22;;;;;;;30.73;17.98;;;2.80;99.90;;;;;;5034478;28;20087;-59
2021/12/06 01:05:49;;;;;;;33.28;18.23;;;2.80;99.90;;;;;;5032724;28;20124;-59
2021/12/06 01:08:15;;;;;;;28.95;14.85;;;2.70;99.90;;;;;;5033931;28;20048;-59
2021/12/06 01:10:41;;;;;;;32.67;18.75;;;2.80;99.90;;;;;;5033329;28;20509;-59
2021/12/06 01:13:07;;;;;;;34.03;18.67;;;2.70;99.90;;;;;;5034056;28;20041;-57
2021/12/06 01:15:34;;;;;;;34.33;19.13;;;2.80;99.90;;;;;;5034288;28;20065;-57
2021/12/06 01:18:02;;;;;;;33.15;18.48;;;2.70;99.90;;;;;;5032419;28;20510;-56
2021/12/06 01:20:31;;;;;;;34.03;18.50;;;2.70;99.90;;;;;;5033521;28;20131;-56
2021/12/06 01:23:06;;;;;;;32.33;18.35;;;;;;;;;;5034087;28;20508;-58
2021/12/06 01:41:33;;;;;;;37.17;18.90;;;2.80;99.90;;;;;;5033505;28;20045;-57
2021/12/06 01:44:26;;;;;;;36.13;18.02;;;2.70;99.90;;;;;;5032273;28;20045;-56
2021/12/06 01:47:01;;;;;;;36.20;19.88;;;2.60;99.90;;;;;;5032152;28;20061;-56
2021/12/06 01:49:30;;;;;;;39.33;18.58;;;2.60;99.90;;;;;;5033307;28;20493;-57
2021/12/06 01:51:59;;;;;;;40.63;19.25;;;2.70;99.90;;;;;;5033419;28;20426;-57
2021/12/06 01:54:26;;;;;;;37.88;18.48;;;;;;;;;;5032243;28;20060;-56
2021/12/06 01:56:52;;;;;;;43.80;20.65;;;2.70;99.90;;;;;;5033385;28;20049;-57
2021/12/06 01:59:20;;;;;;;40.97;20.15;;;2.60;99.90;;;;;;5033068;28;20495;-57
2021/12/06 02:01:47;;;;;;;43.50;20.25;;;2.60;99.90;;;;;;5033016;28;20065;-57
2021/12/06 02:04:13;;;;;;;40.22;20.08;;;2.80;99.90;;;;;;5033689;28;20045;-59
2021/12/06 02:06:40;;;;;;;42.08;21.35;;;2.70;99.90;;;;;;5033088;28;20049;-58
2021/12/06 02:09:08;;;;;;;43.80;21.65;;;2.60;99.90;;;;;;5033191;28;20053;-57
2021/12/06 02:11:36;;;;;;;43.72;21.17;;;;;;;;;;5033024;28;20399;-57
2021/12/06 02:14:17;;;;;;;43.03;21.63;;;2.80;99.90;;;;;;5033337;28;20482;-57
2021/12/06 02:16:59;;;;;;;44.55;21.70;;;2.60;99.90;;;;;;5033029;28;20131;-59
2021/12/06 02:19:31;;;;;;;43.17;22.42;;;2.60;99.90;;;;;;5033052;28;20510;-57
2021/12/06 02:21:56;;;;;;;45.20;21.48;;;2.70;99.90;;;;;;5017945;28;20037;-57
2021/12/06 02:24:22;;;;;;;44.13;22.20;;;2.70;99.90;;;;;;5037168;28;20081;-57
2021/12/06 02:26:48;;;;;;;47.30;22.00;;;2.70;99.90;;;;;;5036963;28;20371;-57
2021/12/06 02:29:14;;;;;;;42.13;19.58;;;2.70;99.90;;;;;;5036721;28;20565;-57
2021/12/06 02:31:40;;;;;;;47.55;21.95;;;2.70;99.90;;;;;;5037288;28;20076;-57
2021/12/06 02:34:05;;;;;;;43.72;21.88;;;2.80;99.90;;;;;;5037289;28;20069;-57
2021/12/06 02:36:32;;;;;;;43.22;21.63;;;2.90;99.90;;;;;;5037225;28;20075;-56
2021/12/06 02:38:58;;;;;;;41.08;21.00;;;2.90;99.90;;;;;;5037002;28;20095;-57
2021/12/06 02:41:25;;;;;;;44.08;21.77;;;2.90;99.90;;;;;;5036539;28;20414;-57
2021/12/06 02:43:53;;;;;;;50.97;24.33;;;2.80;99.90;;;;;;5036591;28;20476;-58
2021/12/06 02:46:20;;;;;;;41.78;20.77;;;2.80;99.90;;;;;;5036708;28;20048;-58
2021/12/06 02:48:45;;;;;;;44.10;22.67;;;2.90;99.90;;;;;;5036620;28;20722;-55
2021/12/06 02:51:12;;;;;;;55.08;23.30;;;2.90;99.90;;;;;;5036928;28;20053;-58
2021/12/06 02:53:38;;;;;;;45.17;22.58;;;2.90;99.90;;;;;;5036579;28;20044;-57
2021/12/06 02:56:17;;;;;;;47.95;21.48;;;3.00;99.90;;;;;;5036419;28;20068;-58
2021/12/06 02:58:56;;;;;;;45.45;19.50;;;3.40;99.90;;;;;;5036481;28;20045;-58
2021/12/06 03:01:46;;;;;;;50.78;23.13;;;3.10;99.90;;;;;;5036422;28;20041;-58
2021/12/06 03:04:12;;;;;;;47.55;21.48;;;3.20;99.90;;;;;;5035043;28;20053;-58
2021/12/06 03:06:40;;;;;;;48.05;22.23;;;2.90;99.90;;;;;;5036200;28;20064;-57
2021/12/06 03:09:11;;;;;;;48.25;23.92;;;2.90;99.90;;;;;;5035977;28;20049;-57
2021/12/06 03:11:52;;;;;;;52.47;24.05;;;2.50;99.90;;;;;;5036134;28;20099;-58
2021/12/06 03:14:22;;;;;;;58.00;25.77;;;2.60;99.90;;;;;;5036082;28;20157;-58
2021/12/06 03:16:48;;;;;;;49.17;24.15;;;2.60;99.90;;;;;;5035170;28;20496;-58
2021/12/06 03:19:14;;;;;;;52.97;24.55;;;2.80;99.90;;;;;;5035892;28;20403;-58
2021/12/06 03:21:40;;;;;;;54.58;23.83;;;;;;;;;;5034748;28;20168;-57
2021/12/06 03:24:06;;;;;;;49.72;24.02;;;2.90;99.90;;;;;;5034944;28;20127;-58
2021/12/06 03:26:34;;;;;;;53.10;24.10;;;3.00;99.90;;;;;;5036002;28;20041;-57
2021/12/06 03:29:00;;;;;;;51.97;25.10;;;2.80;99.90;;;;;;5035828;28;20052;-58
2021/12/06 03:31:26;;;;;;;53.60;24.50;;;2.80;99.90;;;;;;5035874;28;20041;-59
2021/12/06 03:33:54;;;;;;;52.53;22.98;;;;;;;;;;5034682;28;20163;-58
2021/12/06 03:36:21;;;;;;;51.47;25.23;;;2.90;99.90;;;;;;5035626;28;20451;-58
2021/12/06 03:38:48;;;;;;;47.63;22.95;;;2.80;99.90;;;;;;5035567;28;20507;-58
2021/12/06 03:41:16;;;;;;;52.05;24.13;;;2.90;99.90;;;;;;5034664;28;20045;-55
2021/12/06 03:43:42;;;;;;;46.50;21.65;;;2.90;99.90;;;;;;5035465;28;20103;-59
2021/12/06 03:46:10;;;;;;;48.42;22.45;;;;;;;;;;5035542;28;20030;-58
2021/12/06 03:48:35;;;;;;;48.78;22.45;;;2.70;99.90;;;;;;5035216;28;20089;-57
2021/12/06 03:51:02;;;;;;;45.63;20.38;;;2.80;99.90;;;;;;5035340;28;20526;-58
2021/12/06 03:53:28;;;;;;;45.85;22.00;;;2.90;99.90;;;;;;5035734;28;20423;-59
2021/12/06 03:55:54;;;;;;;47.70;21.55;;;2.90;99.90;;;;;;5035496;28;20041;-57
2021/12/06 03:58:20;;;;;;;46.30;21.88;;;3.10;99.90;;;;;;5035292;28;20041;-56
2021/12/06 04:00:46;;;;;;;48.65;22.80;;;2.80;99.90;;;;;;5035347;28;20069;-58
2021/12/06 04:03:12;;;;;;;44.88;21.60;;;2.90;99.90;;;;;;5035220;28;20045;-57
2021/12/06 04:05:38;;;;;;;41.42;19.30;;;3.00;99.90;;;;;;5035144;28;20037;-57
2021/12/06 04:08:04;;;;;;;47.72;22.33;;;2.80;99.90;;;;;;5035386;28;20095;-57
2021/12/06 04:10:30;;;;;;;44.25;21.10;;;3.10;99.90;;;;;;5033849;28;20077;-57
2021/12/06 04:12:58;;;;;;;49.83;23.10;;;2.80;99.90;;;;;;5035463;28;20071;-57
2021/12/06 04:15:24;;;;;;;53.10;24.20;;;2.70;99.90;;;;;;5035068;28;20033;-57
2021/12/06 04:17:50;;;;;;;50.15;23.77;;;2.80;99.90;;;;;;5033664;28;20116;-58
2021/12/06 04:20:15;;;;;;;53.83;24.02;;;2.80;99.90;;;;;;5033773;28;20049;-57
2021/12/06 04:22:43;;;;;;;53.22;23.83;;;2.90;99.90;;;;;;5034918;28;20468;-57
2021/12/06 04:25:12;;;;;;;52.78;23.15;;;2.80;99.90;;;;;;5035015;28;20398;-57
2021/12/06 04:27:39;;;;;;;55.47;24.08;;;2.90;99.90;;;;;;5034925;28;20056;-56
2021/12/06 04:30:07;;;;;;;52.97;23.13;;;2.80;99.90;;;;;;5034412;28;20527;-58
2021/12/06 04:32:33;;;;;;;58.65;25.90;;;2.90;99.90;;;;;;5034761;28;20041;-57
2021/12/06 04:34:59;;;;;;;51.47;23.15;;;2.90;99.90;;;;;;5033946;28;20048;-57
2021/12/06 04:37:25;;;;;;;57.17;23.95;;;2.90;99.90;;;;;;5035048;28;20044;-57
2021/12/06 04:39:50;;;;;;;53.25;23.42;;;2.80;99.90;;;;;;5033313;28;20047;-56
2021/12/06 04:42:19;;;;;;;56.28;23.92;;;2.70;99.90;;;;;;5033653;28;20107;-57
2021/12/06 04:44:44;;;;;;;58.00;24.25;;;2.80;99.90;;;;;;5034583;28;20103;-57
2021/12/06 04:47:10;;;;;;;57.85;25.20;;;2.90;99.90;;;;;;5033428;28;20412;-57
2021/12/06 04:49:36;;;;;;;52.47;24.40;;;2.80;99.90;;;;;;5032882;28;20554;-57
2021/12/06 04:52:05;;;;;;;57.97;23.23;;;2.90;99.90;;;;;;5034352;28;20053;-57
2021/12/06 04:54:36;;;;;;;61.75;26.48;;;2.90;99.90;;;;;;5034186;28;20045;-56
2021/12/06 04:57:22;;;;;;;56.75;25.35;;;3.10;99.90;;;;;;5034313;28;20045;-56
2021/12/06 04:59:58;;;;;;;53.55;23.73;;;2.90;99.90;;;;;;5034266;28;20048;-57
2021/12/06 05:02:34;;;;;;;54.97;24.67;;;3.00;99.90;;;;;;5052474;28;20076;-57
2021/12/06 05:05:03;;;;;;;49.35;20.77;;;2.90;99.90;;;;;;5053548;28;20102;-57
2021/12/06 05:07:40;;;;;;;55.20;24.45;;;2.80;99.90;;;;;;5054195;28;20049;-57
2021/12/06 05:10:08;;;;;;;59.08;25.25;;;2.90;99.90;;;;;;5054072;28;20402;-57
2021/12/06 05:12:34;;;;;;;55.08;24.95;;;3.00;99.90;;;;;;5037242;28;20059;-57
2021/12/06 05:15:00;;;;;;;57.92;23.55;;;3.00;99.90;;;;;;5054102;28;20483;-57
2021/12/06 05:17:28;;;;;;;47.63;20.83;;;2.90;99.90;;;;;;5047236;28;20100;-57
2021/12/06 05:19:55;;;;;;;58.63;25.80;;;;;;;;;;5053817;28;20471;-58
2021/12/06 05:22:21;;;;;;;62.08;25.80;;;3.00;99.90;;;;;;5052888;28;20048;-57
2021/12/06 05:24:47;;;;;;;57.63;24.60;;;3.10;99.90;;;;;;5054008;28;20487;-57
2021/12/06 05:27:13;;;;;;;56.88;25.95;;;3.10;99.90;;;;;;5053244;28;20045;-58
2021/12/06 05:29:43;;;;;;;59.47;26.52;;;3.00;99.90;;;;;;5052815;28;20041;-57
2021/12/06 05:32:09;;;;;;;47.33;19.05;;;3.00;99.90;;;;;;5052977;28;20045;-57
2021/12/06 05:34:43;;;;;;;55.15;24.58;;;3.00;99.90;;;;;;5052231;28;20036;-59
2021/12/06 05:37:11;;;;;;;55.08;25.40;;;3.10;99.90;;;;;;5053302;28;20044;-57
2021/12/06 05:39:38;;;;;;;57.58;25.27;;;3.10;99.90;;;;;;5053315;28;20513;-57
2021/12/06 05:42:07;;;;;;;58.80;24.13;;;3.00;99.90;;;;;;5053331;28;20041;-57
2021/12/06 05:44:32;;;;;;;61.17;25.77;;;2.90;99.90;;;;;;5047012;28;20507;-57
2021/12/06 05:46:58;;;;;;;53.15;24.05;;;3.10;99.90;;;;;;5027807;28;20131;-56
2021/12/06 05:49:25;;;;;;;61.88;27.17;;;2.90;99.90;;;;;;5028949;28;20046;-57
2021/12/06 05:51:51;;;;;;;61.22;25.52;;;3.10;99.90;;;;;;5032043;28;20124;-57
2021/12/06 05:54:18;;;;;;;57.40;23.88;;;;;;;;;;5042672;28;20112;-58
2021/12/06 05:56:44;;;;;;;57.58;24.45;;;3.10;99.90;;;;;;5051268;28;20051;-57
2021/12/06 05:59:10;;;;;;;54.88;23.23;;;;;;;;;;5037094;28;20045;-57
2021/12/06 06:01:36;;;;;;;61.90;24.55;;;;;;;;;;5031852;28;20503;-56
2021/12/06 06:04:02;;;;;;;65.18;25.80;;;3.10;99.90;;;;;;5034937;28;20098;-57
2021/12/06 06:06:29;;;;;;;58.17;23.33;;;;;;;;;;5050634;28;20045;-58
2021/12/06 06:08:55;;;;;;;69.47;26.77;;;;;;;;;;5049026;28;20087;-58
2021/12/06 06:11:21;;;;;;;63.50;27.55;;;;;;;;;;5048854;28;20073;-58
2021/12/06 06:13:47;;;;;;;62.50;23.63;;;3.20;99.90;;;;;;5049050;28;20053;-58
2021/12/06 06:16:17;;;;;;;57.22;22.52;;;3.10;99.90;;;;;;5049950;28;20037;-57
2021/12/06 06:18:43;;;;;;;62.20;24.60;;;3.10;99.90;;;;;;5051723;28;20068;-58
2021/12/06 06:21:09;;;;;;;59.35;25.48;;;3.00;99.90;;;;;;5051473;28;20079;-58
2021/12/06 06:23:35;;;;;;;67.50;28.40;;;3.10;99.90;;;;;;5050399;28;20056;-58
2021/12/06 06:26:00;;;;;;;64.28;24.70;;;3.00;99.90;;;;;;5051055;28;20044;-57
2021/12/06 06:28:26;;;;;;;57.47;22.90;;;3.20;99.90;;;;;;5049730;28;20079;-57
2021/12/06 06:30:52;;;;;;;62.92;25.67;;;;;;;;;;5050810;28;20048;-54
2021/12/06 06:33:17;;;;;;;67.28;27.15;;;3.10;99.90;;;;;;5048864;28;20041;-54
2021/12/06 06:35:43;;;;;;;57.72;23.52;;;3.00;99.90;;;;;;5049627;28;20036;-58
2021/12/06 06:38:09;;;;;;;66.05;27.20;;;3.00;99.90;;;;;;5032615;28;20480;-56
2021/12/06 06:40:34;;;;;;;68.70;26.35;;;2.80;99.90;;;;;;5032686;28;20046;-56
2021/12/06 06:43:01;;;;;;;68.78;25.83;;;3.10;99.90;;;;;;5031761;28;20044;-54
2021/12/06 06:45:26;;;;;;;67.25;24.90;;;3.00;99.90;;;;;;5032279;28;20499;-56
2021/12/06 06:47:52;;;;;;;68.40;26.80;;;3.00;99.90;;;;;;5033047;28;20143;-56
2021/12/06 06:50:19;;;;;;;71.05;26.08;;;3.00;99.90;;;;;;5044153;28;20041;-56
2021/12/06 06:52:46;;;;;;;61.05;24.75;;;3.20;99.90;;;;;;5043514;28;20575;-55
2021/12/06 06:55:13;;;;;;;82.00;29.13;;;3.00;99.90;;;;;;5046208;28;20094;-56
2021/12/06 06:57:40;;;;;;;85.53;30.65;;;2.90;99.90;;;;;;5039855;28;20030;-54
2021/12/06 07:00:11;;;;;;;78.45;29.42;;;2.90;99.90;;;;;;5038393;28;20054;-56
2021/12/06 07:02:37;;;;;;;80.88;27.25;;;;;;;;;;5045282;28;20078;-56
2021/12/06 07:05:03;;;;;;;80.75;28.38;;;2.90;99.90;;;;;;5042162;28;20403;-56
2021/12/06 07:07:28;;;;;;;78.60;29.58;;;2.90;99.90;;;;;;5046064;28;20047;-57
2021/12/06 07:09:54;;;;;;;82.43;30.58;;;3.00;99.90;;;;;;5045690;28;20453;-55
2021/12/06 07:12:20;;;;;;;80.68;28.05;;;3.00;99.90;;;;;;5039346;28;20622;-55
2021/12/06 07:14:47;;;;;;;90.53;30.30;;;2.90;99.90;;;;;;5033760;28;20403;-56
2021/12/06 07:17:15;;;;;;;87.53;29.25;;;3.10;99.90;;;;;;5035054;28;20051;-57
2021/12/06 07:19:41;;;;;;;91.78;30.23;;;2.90;99.90;;;;;;5034450;28;20047;-56
2021/12/06 07:22:07;;;;;;;87.65;31.20;;;;;;;;;;5033894;28;20081;-56
2021/12/06 07:24:33;;;;;;;96.75;32.20;;;2.90;99.90;;;;;;5034759;28;20041;-56
2021/12/06 07:26:59;;;;;;;94.78;30.77;;;2.90;99.90;;;;;;5035051;28;20064;-56
2021/12/06 07:29:25;;;;;;;90.75;31.30;;;2.90;99.90;;;;;;5038438;28;20037;-56
2021/12/06 07:31:51;;;;;;;103.00;32.10;;;2.70;99.90;;;;;;5034404;28;20453;-56
2021/12/06 07:34:17;;;;;;;99.47;30.80;;;2.90;99.90;;;;;;5034758;28;20076;-56
2021/12/06 07:36:42;;;;;;;101.43;33.08;;;2.90;99.90;;;;;;5036505;28;20061;-59
2021/12/06 07:39:10;;;;;;;94.22;31.85;;;2.90;99.90;;;;;;5034636;28;20171;-59
2021/12/06 07:41:36;;;;;;;101.63;33.28;;;;;;;;;;5032930;28;20044;-60
2021/12/06 07:44:03;;;;;;;88.95;30.23;;;;;;;;;;5034645;28;20120;-60
2021/12/06 07:46:29;;;;;;;78.80;29.83;;;;;;;;;;5037955;28;20550;-60
2021/12/06 07:48:55;;;;;;;80.97;29.42;;;3.10;99.90;;;;;;5043815;28;20049;-60
2021/12/06 07:51:25;;;;;;;89.60;30.65;;;3.20;99.90;;;;;;5035460;28;20125;-60
2021/12/06 07:53:52;;;;;;;86.95;29.95;;;;;;;;;;5033020;28;20394;-60
2021/12/06 07:56:18;;;;;;;83.50;30.05;;;;;;;;;;5042925;28;20032;-60
2021/12/06 07:58:45;;;;;;;75.80;29.77;;;3.10;99.90;;;;;;5037188;28;20515;-60
2021/12/06 08:01:11;;;;;;;81.88;29.33;;;3.10;99.90;;;;;;5034359;28;20491;-60
2021/12/06 08:03:38;;;;;;;79.93;27.67;;;3.10;99.90;;;;;;5034034;28;20048;-59
2021/12/06 08:06:05;;;;;;;72.90;25.80;;;3.10;99.90;;;;;;5035382;28;20065;-60
2021/12/06 08:08:32;;;;;;;81.60;28.60;;;;;;;;;;5033472;28;20025;-60
2021/12/06 08:11:02;;;;;;;79.97;29.02;;;3.00;99.90;;;;;;5032825;28;20033;-60
2021/12/06 08:13:31;;;;;;;68.57;25.35;;;3.00;99.90;;;;;;5032884;28;20083;-60
2021/12/06 08:16:00;;;;;;;66.80;27.00;;;3.10;99.90;;;;;;5044324;28;20563;-60
2021/12/06 08:18:26;;;;;;;71.28;26.20;;;3.00;99.90;;;;;;5047094;28;20037;-60
2021/12/06 08:20:52;;;;;;;74.32;27.98;;;3.00;99.90;;;;;;5044575;28;20044;-60
2021/12/06 08:23:18;;;;;;;73.45;27.80;;;3.00;99.90;;;;;;5046551;28;20441;-60
2021/12/06 08:25:48;;;;;;;75.85;28.42;;;3.30;99.90;;;;;;5046762;28;20559;-60
2021/12/06 08:28:15;;;;;;;74.15;27.80;;;3.00;99.90;;;;;;5033501;28;20037;-60
2021/12/06 08:30:41;;;;;;;76.18;28.25;;;2.90;99.90;;;;;;5035723;28;20041;-60
2021/12/06 08:33:08;;;;;;;78.88;29.33;;;;;;;;;;5033527;28;20041;-60
2021/12/06 08:35:36;;;;;;;84.88;29.40;;;3.00;99.90;;;;;;5037132;28;20399;-59
2021/12/06 08:38:03;;;;;;;81.90;30.23;;;2.90;99.90;;;;;;5044638;28;20042;-60
2021/12/06 08:40:30;;;;;;;83.70;29.85;;;3.10;99.90;;;;;;5046198;28;20048;-59
2021/12/06 08:42:56;;;;;;;78.03;28.30;;;3.00;99.90;;;;;;5046424;28;20116;-60
2021/12/06 08:45:22;;;;;;;82.13;28.60;;;;;;;;;;5041205;28;20033;-61
2021/12/06 08:47:48;;;;;;;86.18;32.65;;;3.00;99.90;;;;;;5044118;28;20052;-58
2021/12/06 08:50:18;;;;;;;86.45;30.42;;;2.80;99.90;;;;;;5044896;28;20041;-60
2021/12/06 08:52:44;;;;;;;83.13;30.52;;;3.10;99.90;;;;;;5045290;28;20057;-59
2021/12/06 08:55:11;;;;;;;74.43;28.48;;;2.90;99.90;;;;;;5045490;28;20037;-58
2021/12/06 08:57:37;;;;;;;82.78;27.98;;;3.00;99.90;;;;;;5040928;28;20041;-56
2021/12/06 09:00:10;;;;;;;75.45;28.80;;;3.00;99.90;;;;;;5045740;28;20049;-58
2021/12/06 09:02:35;;;;;;;74.45;27.83;;;2.90;99.90;;;;;;5044673;28;20511;-57
2021/12/06 09:05:01;;;;;;;75.65;27.63;;;3.00;99.90;;;;;;5046856;28;20037;-60
2021/12/06 09:07:27;;;;;;;67.32;28.25;;;;;;;;;;5042971;28;20417;-61
2021/12/06 09:09:56;;;;;;;66.85;27.58;;;2.90;99.90;;;;;;5047699;28;20912;-61
2021/12/06 09:12:28;;;;;;;66.70;27.33;;;3.00;99.90;;;;;;5048274;28;20091;-60
2021/12/06 09:14:57;;;;;;;62.88;24.63;;;3.10;99.90;;;;;;5041326;28;20077;-59
2021/12/06 09:17:23;;;;;;;68.30;26.80;;;;;;;;;;5046690;28;20155;-62
2021/12/06 09:19:49;;;;;;;67.93;25.85;;;2.90;99.90;;;;;;5041406;28;20036;-60
2021/12/06 09:22:16;;;;;;;58.58;21.67;;;3.10;99.90;;;;;;5043950;28;20044;-59
2021/12/06 09:24:42;;;;;;;71.78;27.27;;;2.80;99.90;;;;;;5043802;28;20037;-60
2021/12/06 09:27:08;;;;;;;67.75;26.60;;;3.00;99.90;;;;;;5041502;28;20560;-59
2021/12/06 09:29:36;;;;;;;68.57;27.55;;;2.90;99.90;;;;;;5040708;28;20052;-61
2021/12/06 09:32:07;;;;;;;64.38;26.17;;;3.00;99.90;;;;;;5042980;28;20045;-61
2021/12/06 09:34:33;;;;;;;67.00;25.55;;;;;;;;;;5047066;28;20072;-63
2021/12/06 09:37:00;;;;;;;60.65;23.10;;;3.00;99.90;;;;;;5046528;28;20056;-60
2021/12/06 09:39:26;;;;;;;61.95;25.38;;;3.00;99.90;;;;;;5044833;28;20140;-58
2021/12/06 09:41:53;;;;;;;61.45;25.10;;;;;;;;;;5047369;28;20029;-61
2021/12/06 09:44:19;;;;;;;59.53;24.80;;;;;;;;;;5044691;28;20040;-60
2021/12/06 09:46:45;;;;;;;64.28;24.17;;;2.90;99.90;;;;;;5046044;28;20075;-60
2021/12/06 09:49:13;;;;;;;64.22;24.50;;;;;;;;;;5042352;28;20044;-60
2021/12/06 09:51:44;;;;;;;69.93;27.50;;;3.30;99.90;;;;;;5041121;28;20040;-59
2021/12/06 09:54:11;;;;;;;71.68;26.63;;;3.10;99.90;;;;;;5042553;28;20045;-61
2021/12/06 09:56:42;;;;;;;76.85;26.75;;;3.10;99.90;;;;;;5034183;28;20038;-60
2021/12/06 09:59:12;;;;;;;76.40;28.80;;;3.00;99.90;;;;;;5031852;28;20442;-61
2021/12/06 10:01:43;;;;;;;72.68;27.55;;;3.00;99.90;;;;;;5031945;28;20069;-60
2021/12/06 10:04:12;;;;;;;76.55;28.13;;;3.00;99.90;;;;;;5031836;28;20083;-60
2021/12/06 10:06:38;;;;;;;76.97;27.00;;;3.00;99.90;;;;;;5033797;28;20064;-61
2021/12/06 10:09:05;;;;;;;66.70;25.60;;;;;;;;;;5044193;28;20041;-60
2021/12/06 10:11:32;;;;;;;72.60;28.67;;;;;;;;;;5045539;28;20030;-60
2021/12/06 10:13:58;;;;;;;66.07;27.33;;;;;;;;;;5035557;28;20041;-62
2021/12/06 10:16:24;;;;;;;66.78;26.30;;;3.00;99.90;;;;;;5031797;28;20044;-61
2021/12/06 10:18:50;;;;;;;65.90;25.75;;;3.10;99.90;;;;;;5030614;28;20041;-59
2021/12/06 10:21:17;;;;;;;55.47;23.15;;;;;;;;;;5042296;28;20045;-61
2021/12/06 10:23:43;;;;;;;59.00;23.33;;;3.10;99.90;;;;;;5041341;28;20053;-59
2021/12/06 10:26:10;;;;;;;58.70;23.55;;;;;;;;;;5045135;28;20037;-61
2021/12/06 10:28:39;;;;;;;53.58;21.55;;;3.00;99.90;;;;;;5043764;28;20044;-60
2021/12/06 10:31:07;;;;;;;48.00;19.80;;;2.90;99.90;;;;;;5043689;28;20045;-60
2021/12/06 10:33:37;;;;;;;46.63;19.17;;;2.90;99.90;;;;;;5037911;28;20407;-59
2021/12/06 10:36:05;;;;;;;49.20;20.02;;;;;;;;;;5044688;28;20033;-59
2021/12/06 10:38:42;;;;;;;46.97;18.70;;;3.20;99.90;;;;;;5041695;28;20036;-58
2021/12/06 10:41:18;;;;;;;48.72;20.73;;;3.30;99.90;;;;;;5041408;28;20507;-63
2021/12/06 10:44:03;;;;;;;51.47;22.13;;;;;;;;;;5046713;28;20041;-63
2021/12/06 10:46:30;;;;;;;58.30;20.67;;;3.10;99.90;;;;;;5036004;28;20406;-63
2021/12/06 10:48:57;;;;;;;62.03;22.55;;;;;;;;;;5044644;28;20049;-63
2021/12/06 10:51:27;;;;;;;66.70;23.10;;;2.90;99.90;;;;;;5046656;28;20483;-63
2021/12/06 10:54:03;;;;;;;56.25;21.45;;;2.90;99.90;;;;;;5043631;28;20065;-62
2021/12/06 10:56:36;;;;;;;54.05;20.92;;;2.90;99.90;;;;;;5044695;28;20033;-63
2021/12/06 10:59:05;;;;;;;60.85;23.15;;;2.80;99.90;;;;;;5048561;28;20521;-63
2021/12/06 11:01:32;;;;;;;54.97;23.25;;;2.90;99.90;;;;;;5038212;28;20495;-62
2021/12/06 11:04:01;;;;;;;54.08;21.77;;;2.90;99.90;;;;;;5049314;28;20122;-63
2021/12/06 11:06:44;;;;;;;57.78;21.70;;;2.90;99.90;;;;;;5042764;28;20045;-63
2021/12/06 11:09:17;;;;;;;54.90;22.63;;;3.10;99.90;;;;;;5047426;28;20407;-64
2021/12/06 11:11:49;;;;;;;67.63;24.02;;;;;;;;;;5045976;28;20208;-62
2021/12/06 11:14:22;;;;;;;57.60;22.23;;;2.80;99.90;;;;;;5042823;28;20048;-62
2021/12/06 11:16:53;;;;;;;61.88;23.52;;;3.00;99.90;;;;;;5045567;28;20033;-63
2021/12/06 11:19:20;;;;;;;63.13;23.23;;;;;;;;;;5029141;28;20056;-63
2021/12/06 11:21:47;;;;;;;47.63;17.15;;;2.90;99.90;;;;;;5043799;28;20091;-63
2021/12/06 11:24:17;;;;;;;60.55;23.92;;;3.10;99.90;;;;;;5041349;28;20532;-63
2021/12/06 11:26:46;;;;;;;59.47;22.77;;;;;;;;;;5048118;28;20091;-63
2021/12/06 11:29:36;;;;;;;70.65;25.08;;;3.10;99.90;;;;;;5040859;28;20117;-63
2021/12/06 11:32:23;;;;;;;70.10;28.13;;;2.90;99.90;;;;;;5044836;28;20116;-63
2021/12/06 11:34:56;;;;;;;70.05;23.63;;;;;;;;;;5048707;28;20106;-63
2021/12/06 11:37:34;;;;;;;71.03;26.00;;;;;;;;;;5046410;28;20037;-63
2021/12/06 11:40:20;;;;;;;79.45;27.15;;;3.00;99.90;;;;;;5041378;28;20037;-63
2021/12/06 11:43:00;;;;;;;77.20;26.67;;;3.10;99.90;;;;;;5042647;28;20048;-63
2021/12/06 11:45:32;;;;;;;76.00;24.85;;;;;;;;;;5047123;28;20065;-63
2021/12/06 11:48:13;;;;;;;88.57;28.75;;;3.30;99.90;;;;;;5042468;28;20065;-62
2021/12/06 11:50:57;;;;;;;81.72;27.83;;;3.20;99.90;;;;;;5044246;28;20055;-62
2021/12/06 11:53:29;;;;;;;91.35;27.58;;;3.10;99.90;;;;;;5048674;28;20041;-62
2021/12/06 11:56:02;;;;;;;90.18;28.65;;;3.40;99.90;;;;;;5047030;28;20033;-63
2021/12/06 11:58:35;;;;;;;82.07;28.77;;;3.20;99.90;;;;;;5046518;28;20056;-62
2021/12/06 12:01:06;;;;;;;75.05;26.90;;;3.60;99.90;;;;;;5044999;28;20547;-63
2021/12/06 12:03:34;;;;;;;74.13;27.50;;;3.40;99.90;;;;;;5048171;28;20086;-62
2021/12/06 12:05:59;;;;;;;67.95;25.95;;;3.40;99.90;;;;;;5043929;28;20064;-62
2021/12/06 12:08:30;;;;;;;78.40;26.40;;;3.30;99.90;;;;;;5044478;28;20072;-62
2021/12/06 12:10:56;;;;;;;74.78;29.42;;;3.30;99.90;;;;;;5042388;28;20040;-62
2021/12/06 12:13:25;;;;;;;69.32;23.60;;;3.40;99.90;;;;;;5045794;28;20080;-62
2021/12/06 12:15:57;;;;;;;62.25;23.90;;;3.40;99.90;;;;;;5046847;28;20029;-62
2021/12/06 12:18:24;;;;;;;78.47;29.27;;;3.40;99.90;;;;;;5045028;28;20081;-62
2021/12/06 12:20:51;;;;;;;69.07;24.52;;;3.40;99.90;;;;;;5047370;28;20029;-63
2021/12/06 12:23:17;;;;;;;82.47;27.38;;;3.40;99.90;;;;;;5043414;28;20041;-63
2021/12/06 12:25:53;;;;;;;71.22;25.50;;;3.40;99.90;;;;;;5047298;28;20041;-63
2021/12/06 12:28:31;;;;;;;67.57;23.60;;;3.30;99.90;;;;;;5047245;28;20434;-62
2021/12/06 12:30:58;;;;;;;67.13;26.15;;;3.40;99.90;;;;;;5043845;28;20120;-63
2021/12/06 12:33:25;;;;;;;79.78;29.52;;;3.40;99.90;;;;;;5044858;28;20128;-63
2021/12/06 12:35:54;;;;;;;79.22;28.67;;;3.40;99.90;;;;;;5045825;28;20037;-62
2021/12/06 12:38:24;;;;;;;82.90;28.45;;;3.40;99.90;;;;;;5045585;28;20033;-63
2021/12/06 12:40:54;;;;;;;75.80;28.25;;;3.50;99.90;;;;;;5039600;28;20083;-62
2021/12/06 12:43:48;;;;;;;75.45;29.50;;;3.50;99.90;;;;;;5040256;28;20041;-63
2021/12/06 12:46:19;;;;;;;77.20;28.23;;;3.40;99.90;;;;;;5043657;28;20041;-63
2021/12/06 12:48:50;;;;;;;72.40;25.77;;;3.60;99.90;;;;;;5047187;28;20526;-63
2021/12/06 12:51:19;;;;;;;74.20;28.73;;;3.50;99.90;;;;;;5044212;28;20037;-62
2021/12/06 12:54:04;;;;;;;75.05;28.27;;;3.60;99.90;;;;;;5045484;28;20479;-62
2021/12/06 12:56:31;;;;;;;66.78;26.52;;;3.70;99.90;;;;;;5047288;28;20041;-62
2021/12/06 12:58:58;;;;;;;87.07;30.75;;;3.50;99.90;;;;;;5045876;28;20033;-62
2021/12/06 13:01:25;;;;;;;75.55;29.05;;;;;;;;;;5046603;28;20112;-62
2021/12/06 13:03:59;;;;;;;81.60;27.17;;;3.60;99.90;;;;;;5044701;28;20127;-62
2021/12/06 13:06:34;;;;;;;63.43;23.20;;;3.40;99.90;;;;;;5043954;28;20076;-63
2021/12/06 13:09:05;;;;;;;70.82;28.08;;;;;;;;;;5044744;28;20460;-62
2021/12/06 13:11:53;;;;;;;74.35;28.13;;;;;;;;;;5045575;28;20044;-63
2021/12/06 13:14:31;;;;;;;71.82;28.48;;;3.40;99.90;;;;;;5045953;28;20032;-62